Time;durP1;ratioP1;P1;durP2;ratioP2;P2;SDS_P1;SDS_P2;PMS_P1;PMS_P2;Temp;Humidity;BMP_temperature;BMP_pressure;BME280_temperature;BME280_humidity;BME280_pressure;Samples;Min_cycle;Max_cycle;Signal;HPM_P1;HPM_P2
2022/10/26 00:01:20;;;;;;;4.50;3.57;;;;;;;11.49;77.93;98985.97;5151533;27;39917;-82
2022/10/26 00:03:48;;;;;;;3.40;3.10;;;;;;;11.50;77.97;98978.81;5135789;27;41742;-81
2022/10/26 00:06:18;;;;;;;2.67;2.47;;;;;;;11.61;77.45;98984.31;5154620;27;42868;-81
2022/10/26 00:08:46;;;;;;;3.07;2.77;;;;;;;11.64;77.71;98983.25;5136073;27;42438;-79
2022/10/26 00:11:14;;;;;;;2.90;2.60;;;;;;;11.69;77.47;98986.47;5153548;27;40287;-81
2022/10/26 00:13:43;;;;;;;5.07;3.03;;;;;;;11.63;77.24;98970.94;5152581;27;42544;-80
2022/10/26 00:16:12;;;;;;;3.30;2.70;;;;;;;11.74;77.33;98974.59;5136003;27;41420;-80
2022/10/26 00:18:41;;;;;;;2.80;2.47;;;;;;;11.56;77.13;98945.75;5152920;27;42243;-82
2022/10/26 00:21:10;;;;;;;3.47;2.60;;;;;;;11.69;76.90;98959.94;5136011;27;41153;-82
2022/10/26 00:23:38;;;;;;;3.60;2.73;;;;;;;11.80;76.72;98968.91;5135696;27;43741;-79
2022/10/26 00:26:07;;;;;;;3.87;2.67;;;;;;;11.82;77.11;98977.63;5154575;27;43734;-79
2022/10/26 00:28:34;;;;;;;3.80;2.80;;;;;;;11.84;77.03;98970.44;5135532;27;41537;-80
2022/10/26 00:31:03;;;;;;;3.87;2.63;;;;;;;11.84;77.04;98978.38;5153277;27;40398;-79
2022/10/26 00:33:31;;;;;;;2.73;2.53;;;;;;;11.85;76.76;98968.63;5135408;27;40750;-81
2022/10/26 00:35:59;;;;;;;3.20;2.40;;;;;;;11.68;76.93;98939.66;5153128;27;43469;-80
2022/10/26 00:38:28;;;;;;;2.90;2.53;;;;;;;11.89;77.25;98978.06;5135677;27;43329;-79
2022/10/26 00:40:56;;;;;;;3.93;2.83;;;;;;;11.91;76.75;98975.31;5135528;27;40277;-79
2022/10/26 00:43:34;;;;;;;2.60;2.40;;;;;;;11.91;77.02;98975.31;5152897;27;41895;-81
2022/10/26 00:46:05;;;;;;;3.83;2.60;;;;;;;11.94;76.99;98978.63;5153093;27;41807;-79
2022/10/26 00:48:37;;;;;;;3.40;2.63;;;;;;;11.95;77.08;98976.81;5150285;27;42223;-79
2022/10/26 00:51:09;;;;;;;4.97;2.80;;;;;;;11.98;77.11;98976.63;5150398;27;40173;-82
2022/10/26 00:53:38;;;;;;;2.40;2.20;;;;;;;12.02;77.03;98980.75;5152537;27;43350;-79
2022/10/26 00:56:07;;;;;;;2.77;2.43;;;;;;;12.03;77.15;98974.50;5154968;27;42879;-79
2022/10/26 09:07:58;;;;;;;8.80;6.57;;;;;;;13.57;100.00;99058.59;5109370;28;20556;-80
2022/10/26 09:10:37;;;;;;;7.37;6.17;;;;;;;14.25;100.00;99047.38;5140303;27;40821;-80
2022/10/26 09:13:12;;;;;;;7.73;6.23;;;;;;;14.96;97.91;99056.25;5091350;28;43646;-82
2022/10/26 09:15:53;;;;;;;6.37;5.63;;;;;;;15.50;93.14;99058.22;5105860;28;42638;-82
2022/10/26 09:18:34;;;;;;;9.80;6.03;;;;;;;15.81;89.39;99065.50;5106418;28;42466;-81
2022/10/26 09:21:13;;;;;;;6.40;5.80;;;;;;;15.89;87.76;99062.22;5091341;28;41418;-80
2022/10/26 09:23:59;;;;;;;7.13;5.60;;;;;;;16.12;86.91;99062.03;5108137;28;42977;-80
2022/10/26 09:26:32;;;;;;;7.90;5.50;;;;;;;16.55;84.54;99073.69;5108103;28;43121;-83
2022/10/26 09:29:03;;;;;;;6.67;5.77;;;;;;;17.16;82.52;99085.41;5091488;28;43384;-80
2022/10/26 09:31:35;;;;;;;5.37;4.60;;;;;;;17.83;80.88;99090.25;5107875;28;40117;-80
2022/10/26 09:34:07;;;;;;;5.03;4.50;;;;;;;18.42;78.52;99090.25;5140268;27;41723;-80
2022/10/26 09:36:35;;;;;;;6.07;4.90;;;;;;;18.93;74.17;99099.88;5091349;28;42010;-83
2022/10/26 09:39:15;;;;;;;5.60;4.50;;;;;;;19.28;71.81;99104.66;5109694;28;42376;-82
2022/10/26 09:41:49;;;;;;;4.67;4.03;;;;;;;19.67;69.08;99117.00;5125212;27;38946;-82
2022/10/26 09:44:25;;;;;;;5.77;3.80;;;;;;;20.88;67.17;99119.44;5106430;28;41612;-82
2022/10/26 09:46:57;;;;;;;11.37;4.20;;;;;;;21.54;63.99;99131.56;5091268;28;43196;-81
2022/10/26 09:49:33;;;;;;;6.87;3.87;;;;;;;21.51;63.33;99140.84;5139379;27;42065;-79
2022/10/26 09:52:01;;;;;;;8.20;4.27;;;;;;;21.39;64.22;99137.53;5107600;28;39735;-82
2022/10/26 09:54:30;;;;;;;4.03;3.20;;;;;;;21.24;63.87;99146.34;5142197;27;41503;-82
2022/10/26 09:57:01;;;;;;;3.50;3.20;;;;;;;21.01;63.90;99132.50;5108553;28;43834;-80
2022/10/26 09:59:33;;;;;;;8.47;3.90;;;;;;;20.69;64.48;99125.81;5104558;28;43108;-81
2022/10/26 10:02:01;;;;;;;6.97;3.83;;;;;;;20.66;64.94;99136.88;5107873;28;40053;-83
2022/10/26 10:04:32;;;;;;;4.07;3.43;;;;;;;20.42;65.03;99118.63;5108895;28;42066;-79
2022/10/26 10:07:13;;;;;;;5.33;3.67;;;;;;;20.36;64.87;99135.41;5107254;28;43514;-82
2022/10/26 10:09:42;;;;;;;5.77;3.43;;;;;;;20.38;64.04;99149.53;5105651;28;42410;-79
2022/10/26 10:12:20;;;;;;;4.63;3.50;;;;;;;20.36;63.84;99148.84;5107207;28;41779;-82
2022/10/26 10:14:57;;;;;;;3.83;3.53;;;;;;;20.40;64.09;99136.75;5090541;28;42864;-80
2022/10/26 10:17:26;;;;;;;7.60;3.63;;;;;;;20.42;63.97;99140.16;5103638;28;43593;-83
2022/10/26 10:19:53;;;;;;;4.13;3.37;;;;;;;20.34;64.56;99126.59;5077007;28;42161;-82
2022/10/26 10:22:25;;;;;;;4.40;3.10;;;;;;;20.41;65.42;99133.06;5095062;28;40492;-82
2022/10/26 10:24:56;;;;;;;6.10;3.73;;;;;;;20.48;65.44;99143.25;5125065;27;41912;-80
2022/10/26 10:27:24;;;;;;;4.27;3.13;;;;;;;20.60;65.00;99150.09;5093765;28;43145;-81
2022/10/26 10:29:54;;;;;;;5.90;3.83;;;;;;;21.27;63.72;99152.25;5093669;28;41541;-79
2022/10/26 10:32:24;;;;;;;3.97;3.57;;;;;;;21.71;61.66;99155.78;5094426;28;39870;-79
2022/10/26 10:34:54;;;;;;;6.07;4.03;;;;;;;22.01;60.77;99157.16;5076662;28;42159;-81
2022/10/26 10:37:26;;;;;;;3.97;3.40;;;;;;;22.24;60.66;99170.94;5076278;28;41646;-82
2022/10/26 10:39:59;;;;;;;4.97;3.57;;;;;;;22.54;58.86;99175.75;5094840;28;41841;-81
2022/10/26 10:42:31;;;;;;;8.40;3.80;;;;;;;23.59;56.97;99171.53;5093891;28;39970;-82
2022/10/26 10:45:00;;;;;;;4.80;3.20;;;;;;;23.47;57.75;99167.47;5092034;28;41764;-84
2022/10/26 10:47:31;;;;;;;5.30;3.10;;;;;;;23.24;58.17;99173.53;5093069;28;41715;-81
2022/10/26 10:50:02;;;;;;;5.33;3.00;;;;;;;22.92;58.44;99168.09;5110464;28;41427;-80
2022/10/26 10:52:31;;;;;;;2.90;2.43;;;;;;;22.65;58.71;99162.94;5094526;28;40239;-79
2022/10/26 10:55:14;;;;;;;3.83;3.40;;;;;;;22.32;59.66;99146.66;5076449;28;42289;-81
2022/10/26 10:57:59;;;;;;;5.23;2.87;;;;;;;22.33;60.54;99169.94;5090417;28;42812;-80
2022/10/26 11:00:28;;;;;;;3.83;2.80;;;;;;;22.46;59.38;99167.63;5124518;27;42674;-83
2022/10/26 11:03:21;;;;;;;6.13;2.87;;;;;;;23.23;57.71;99174.56;5076373;28;38927;-82
2022/10/26 11:06:05;;;;;;;4.63;2.30;;;;;;;24.51;55.52;99160.09;5092241;28;41745;-79
2022/10/26 11:08:39;;;;;;;4.73;2.20;;;;;;;25.46;53.01;99190.47;5094080;28;43763;-82
2022/10/26 11:11:13;;;;;;;4.60;2.70;;;;;;;26.08;51.61;99199.22;5125584;27;42040;-81
2022/10/26 11:13:48;;;;;;;4.33;2.20;;;;;;;27.50;49.11;99204.06;5093165;28;38830;-82
2022/10/26 11:16:22;;;;;;;5.50;2.60;;;;;;;30.63;43.81;99228.41;5092377;28;42744;-81
2022/10/26 11:18:56;;;;;;;3.97;2.70;;;;;;;32.83;39.52;99247.38;5075803;28;44580;-83
2022/10/26 11:21:28;;;;;;;4.73;2.40;;;;;;;34.12;36.75;99259.69;5075749;28;42199;-81
2022/10/26 11:24:10;;;;;;;5.23;2.00;;;;;;;35.18;34.76;99270.31;5124259;27;39954;-79
2022/10/26 11:26:43;;;;;;;2.90;1.95;;;;;;;35.79;33.14;99274.28;5091456;28;41433;-81
2022/10/26 11:29:22;;;;;;;2.58;1.90;;;;;;;34.90;33.31;99267.53;5108625;28;41904;-81
2022/10/26 11:31:56;;;;;;;3.20;2.00;;;;;;;33.34;35.75;99251.59;5092355;28;44479;-80
2022/10/26 11:34:30;;;;;;;3.03;1.80;;;;;;;33.07;36.17;99224.47;5076019;28;38857;-80
2022/10/26 11:37:04;;;;;;;3.20;1.77;;;;;;;33.69;34.69;99248.94;5092726;28;41263;-82
2022/10/26 11:39:42;;;;;;;5.22;1.70;;;;;;;34.27;34.42;99251.81;5075801;28;41762;-83
2022/10/26 11:42:21;;;;;;;5.20;2.30;;;;;;;35.61;33.22;99249.66;5092391;28;41152;-83
2022/10/26 11:44:55;;;;;;;3.92;2.13;;;;;;;37.05;31.60;99252.44;5075400;28;39006;-80
2022/10/26 11:47:33;;;;;;;2.72;1.65;;;;;;;38.64;28.86;99282.16;5091988;28;41833;-79
2022/10/26 11:50:05;;;;;;;3.75;1.92;;;;;;;40.07;27.35;99283.44;5075669;28;43161;-82
2022/10/26 11:52:39;;;;;;;3.75;1.50;;;;;;;41.30;26.22;99284.84;5075374;28;41343;-80
2022/10/26 11:55:10;;;;;;;3.20;2.20;;;;;;;42.30;25.45;99296.38;5092740;28;39112;-82
2022/10/26 11:57:41;;;;;;;2.50;1.52;;;;;;;43.11;23.92;99301.09;5092004;28;42462;-83
2022/10/26 12:00:16;;;;;;;4.20;1.73;;;;;;;43.59;23.20;99299.09;5090258;28;42752;-79
2022/10/26 12:02:49;;;;;;;3.78;1.65;;;;;;;43.99;21.96;99313.59;5090342;28;42228;-81
2022/10/26 12:05:23;;;;;;;3.65;1.70;;;;;;;44.41;22.03;99293.03;5092187;28;39063;-82
2022/10/26 12:07:54;;;;;;;2.30;1.73;;;;;;;44.68;21.07;99314.59;5075304;28;42699;-81
2022/10/26 12:10:26;;;;;;;3.45;2.35;;;;;;;44.51;20.92;99294.81;5090284;28;42640;-83
2022/10/26 12:13:04;;;;;;;4.68;1.58;;;;;;;43.61;21.81;99282.06;5075085;28;42424;-80
2022/10/26 12:15:39;;;;;;;3.03;1.83;;;;;;;43.17;22.69;99285.13;5089229;28;40867;-81
2022/10/26 12:18:16;;;;;;;1.85;1.40;;;;;;;42.95;22.73;99294.88;5088776;28;41604;-80
2022/10/26 12:20:56;;;;;;;3.75;1.88;;;;;;;42.93;22.52;99291.56;5090318;28;43819;-79
2022/10/26 12:23:24;;;;;;;2.65;1.40;;;;;;;43.02;22.80;99294.53;5075413;28;41182;-80
2022/10/26 12:26:30;;;;;;;3.22;1.55;;;;;;;43.48;21.91;99293.94;5092686;28;41000;-82
2022/10/26 12:29:39;;;;;;;8.05;1.52;;;;;;;43.71;20.97;99307.00;5091697;28;41521;-83
2022/10/26 12:32:49;;;;;;;3.30;2.17;;;;;;;43.41;21.25;99301.84;5092084;28;41674;-81
2022/10/26 12:35:40;;;;;;;4.10;1.52;;;;;;;42.73;22.27;99286.22;5092366;28;41378;-81
2022/10/26 12:38:36;;;;;;;2.65;1.58;;;;;;;41.27;24.04;99277.91;5088700;28;40596;-84
2022/10/26 12:41:20;;;;;;;4.47;1.85;;;;;;;39.44;26.22;99269.75;5074571;28;43612;-80
2022/10/26 12:43:48;;;;;;;5.15;1.67;;;;;;;37.82;27.53;99246.66;5088954;28;43724;-78
2022/10/26 12:46:44;;;;;;;5.90;1.60;;;;;;;36.48;28.50;99261.03;5092724;28;42327;-80
2022/10/26 12:49:55;;;;;;;2.90;1.50;;;;;;;35.73;28.88;99257.88;5089493;28;40607;-80
2022/10/26 12:52:29;;;;;;;3.47;2.13;;;;;;;35.17;30.15;99254.88;5091230;28;40724;-81
2022/10/26 12:55:20;;;;;;;3.57;1.73;;;;;;;35.78;29.18;99258.81;5091629;28;43169;-81
2022/10/26 12:58:02;;;;;;;4.40;1.80;;;;;;;35.81;29.20;99258.31;5088181;28;42175;-80
2022/10/26 13:00:31;;;;;;;3.27;1.80;;;;;;;34.65;30.34;99253.19;5123051;27;40859;-79
2022/10/26 13:03:15;;;;;;;2.77;1.87;;;;;;;33.65;31.81;99231.25;5091146;28;41565;-80
2022/10/26 13:06:17;;;;;;;2.23;1.80;;;;;;;32.87;33.25;99240.38;5090560;28;44684;-78
2022/10/26 13:08:50;;;;;;;2.30;1.50;;;;;;;32.09;33.95;99231.91;5057413;28;42251;-81
2022/10/26 13:11:21;;;;;;;2.80;1.80;;;;;;;31.38;34.59;99237.72;5091381;28;40151;-82
2022/10/26 13:13:54;;;;;;;2.97;1.70;;;;;;;30.58;35.80;99229.03;5089700;28;41762;-82
2022/10/26 13:16:25;;;;;;;5.03;1.93;;;;;;;29.90;36.42;99203.91;5075234;28;41671;-81
2022/10/26 13:18:54;;;;;;;4.30;2.13;;;;;;;29.57;37.71;99213.97;5088055;28;42224;-83
2022/10/26 13:21:24;;;;;;;3.73;1.80;;;;;;;29.28;38.23;99220.66;5092040;28;39907;-82
2022/10/26 13:24:04;;;;;;;2.23;1.50;;;;;;;29.08;39.04;99215.13;5092403;28;41728;-80
2022/10/26 13:26:33;;;;;;;2.73;1.50;;;;;;;28.90;39.97;99191.19;5074426;28;41901;-80
2022/10/26 13:29:03;;;;;;;3.20;2.00;;;;;;;29.96;38.08;99213.16;5074299;28;42896;-79
2022/10/26 13:31:56;;;;;;;3.20;1.70;;;;;;;31.45;36.87;99230.28;5074356;28;38716;-83
2022/10/26 13:34:27;;;;;;;3.27;1.87;;;;;;;31.59;36.36;99215.44;5091154;28;42335;-83
2022/10/26 13:37:05;;;;;;;5.03;1.80;;;;;;;31.70;36.10;99217.50;5090947;28;41503;-80
2022/10/26 13:39:37;;;;;;;4.37;1.90;;;;;;;32.86;33.90;99243.34;5073706;28;41137;-78
2022/10/26 13:42:07;;;;;;;3.27;1.70;;;;;;;33.70;33.44;99250.63;5090559;28;38790;-82
2022/10/26 13:44:42;;;;;;;4.43;1.83;;;;;;;34.41;33.36;99242.22;5090959;28;43153;-82
2022/10/26 13:47:15;;;;;;;2.10;1.60;;;;;;;34.77;33.09;99251.28;5091264;28;43502;-81
2022/10/26 13:49:46;;;;;;;3.83;1.57;;;;;;;33.93;33.92;99244.34;5073733;28;42814;-79
2022/10/26 13:52:20;;;;;;;2.77;1.60;;;;;;;33.29;35.12;99238.56;5090868;28;38900;-78
2022/10/26 13:54:54;;;;;;;3.90;1.80;;;;;;;33.55;35.08;99215.34;5125304;27;42401;-78
2022/10/26 13:57:28;;;;;;;7.33;2.83;;;;;;;34.36;33.74;99242.13;5077281;28;41708;-80
2022/10/26 13:59:59;;;;;;;3.53;1.60;;;;;;;33.71;33.31;99257.78;5092246;28;43127;-81
2022/10/26 14:02:29;;;;;;;4.50;1.70;;;;;;;32.56;33.62;99249.56;5095367;28;40030;-79
2022/10/26 14:05:00;;;;;;;2.63;2.10;;;;;;;31.55;34.86;99260.75;5076981;28;40793;-79
2022/10/26 14:07:36;;;;;;;3.53;1.57;;;;;;;30.66;36.69;99258.03;5094398;28;42699;-81
2022/10/26 14:10:06;;;;;;;4.07;1.60;;;;;;;29.87;37.56;99241.72;5091279;28;42935;-78
2022/10/26 14:12:34;;;;;;;3.00;1.47;;;;;;;29.22;38.46;99241.41;5095003;28;39889;-80
2022/10/26 14:15:06;;;;;;;2.10;1.23;;;;;;;28.54;39.55;99228.75;5128521;27;41915;-79
2022/10/26 14:17:35;;;;;;;1.60;1.37;;;;;;;28.19;40.44;99245.06;5076996;28;41710;-82
2022/10/26 14:20:04;;;;;;;3.30;1.50;;;;;;;27.69;41.66;99218.94;5093943;28;41442;-79
2022/10/26 14:22:32;;;;;;;3.13;1.17;;;;;;;27.48;42.49;99227.06;5093741;28;38875;-79
2022/10/26 14:25:01;;;;;;;7.03;1.70;;;;;;;27.07;42.91;99216.00;5076751;28;40512;-81
2022/10/26 14:27:38;;;;;;;1.70;1.43;;;;;;;26.94;43.73;99230.28;5093406;28;41823;-80
2022/10/26 14:30:22;;;;;;;3.33;1.20;;;;;;;26.70;44.59;99231.44;5077260;28;41294;-81
2022/10/26 14:32:50;;;;;;;2.00;1.40;;;;;;;26.45;44.60;99224.63;5090383;28;40898;-79
2022/10/26 14:35:22;;;;;;;3.27;1.27;;;;;;;26.20;44.75;99231.31;5094272;28;42815;-81
2022/10/26 14:37:52;;;;;;;4.47;1.60;;;;;;;26.01;45.45;99228.13;5124656;27;42885;-79
2022/10/26 14:40:22;;;;;;;3.17;1.20;;;;;;;25.82;46.10;99234.09;5093380;28;40545;-78
2022/10/26 14:42:54;;;;;;;1.90;1.20;;;;;;;25.59;46.47;99227.81;5076500;28;38867;-79
2022/10/26 14:45:25;;;;;;;5.30;1.70;;;;;;;25.35;46.82;99232.41;5124579;27;42529;-79
2022/10/26 14:47:54;;;;;;;3.30;1.20;;;;;;;25.16;48.07;99232.03;5093320;28;42287;-79
2022/10/26 14:50:23;;;;;;;3.23;1.13;;;;;;;24.86;48.08;99220.16;5076137;28;43525;-80
2022/10/26 14:52:53;;;;;;;1.23;1.10;;;;;;;24.75;48.30;99225.97;5093167;28;39139;-80
2022/10/26 14:55:22;;;;;;;5.13;1.90;;;;;;;24.45;49.11;99204.13;5092894;28;42184;-81
2022/10/26 14:57:54;;;;;;;1.43;1.27;;;;;;;24.36;49.76;99218.69;5092969;28;43100;-80
2022/10/26 15:00:23;;;;;;;2.40;1.30;;;;;;;23.84;49.85;99170.47;5092960;28;41073;-81
2022/10/26 15:02:54;;;;;;;3.03;1.40;;;;;;;24.03;50.48;99222.50;5094124;28;39967;-83
2022/10/26 15:05:27;;;;;;;2.23;1.37;;;;;;;23.90;50.65;99217.63;5109512;28;40820;-79
2022/10/26 15:07:56;;;;;;;2.70;1.30;;;;;;;23.56;51.13;99196.19;5090900;28;42854;-78
2022/10/26 15:10:51;;;;;;;3.60;1.40;;;;;;;23.59;51.61;99231.03;5092738;28;42163;-81
2022/10/26 15:13:26;;;;;;;4.13;2.30;;;;;;;23.50;51.48;99242.78;5068951;28;41009;-79
2022/10/26 15:15:56;;;;;;;5.80;3.23;;;;;;;23.31;52.13;99226.91;5092749;28;41715;-78
2022/10/26 15:18:26;;;;;;;7.67;3.57;;;;;;;23.13;51.91;99206.28;5075722;28;44199;-81
2022/10/26 15:20:55;;;;;;;4.33;2.87;;;;;;;23.20;52.04;99237.03;5092842;28;42042;-83
2022/10/26 15:23:25;;;;;;;6.00;3.30;;;;;;;23.15;52.46;99243.94;5127051;27;40124;-80
2022/10/26 15:25:55;;;;;;;4.33;2.73;;;;;;;23.04;52.83;99241.56;5075645;28;40949;-79
2022/10/26 15:28:29;;;;;;;3.47;2.90;;;;;;;23.03;53.22;99256.94;5092705;28;41699;-77
2022/10/26 15:31:03;;;;;;;4.80;2.23;;;;;;;22.97;52.74;99262.16;5092529;28;43747;-79
2022/10/26 15:33:32;;;;;;;4.47;2.13;;;;;;;22.83;53.06;99260.94;5109773;28;39972;-81
2022/10/26 15:36:13;;;;;;;4.73;1.93;;;;;;;22.79;53.95;99270.38;5075988;28;40493;-78
2022/10/26 15:38:41;;;;;;;5.10;2.40;;;;;;;22.64;53.90;99272.78;5109697;28;43068;-80
2022/10/26 15:41:23;;;;;;;2.20;1.80;;;;;;;22.46;54.31;99286.41;5092506;28;41976;-79
2022/10/26 15:43:56;;;;;;;3.50;1.97;;;;;;;22.24;54.60;99265.38;5090784;28;40050;-78
2022/10/26 15:46:24;;;;;;;5.50;1.43;;;;;;;21.95;55.20;99256.72;5075669;28;40845;-78
2022/10/26 15:48:56;;;;;;;2.40;1.97;;;;;;;21.84;55.62;99263.22;5092429;28;43782;-79
2022/10/26 15:51:24;;;;;;;2.77;1.70;;;;;;;21.65;55.59;99271.47;5124986;27;41949;-79
2022/10/26 15:53:52;;;;;;;4.70;1.83;;;;;;;21.47;55.90;99274.19;5109625;28;38965;-79
2022/10/26 15:56:23;;;;;;;3.50;1.70;;;;;;;21.06;56.50;99245.97;5109589;28;40695;-79
2022/10/26 15:58:54;;;;;;;3.07;1.93;;;;;;;21.10;57.24;99282.38;5089195;28;43067;-79
2022/10/26 16:01:23;;;;;;;3.03;1.80;;;;;;;20.89;57.89;99277.28;5092584;28;41354;-83
2022/10/26 16:03:52;;;;;;;3.40;1.80;;;;;;;20.80;58.58;99283.56;5075473;28;38866;-78
2022/10/26 16:06:26;;;;;;;6.37;2.17;;;;;;;20.63;58.80;99284.38;5091572;28;40690;-77
2022/10/26 16:08:57;;;;;;;2.10;1.67;;;;;;;20.43;59.45;99271.00;5091964;28;43286;-81
2022/10/26 16:11:25;;;;;;;3.20;1.90;;;;;;;20.37;61.14;99278.81;5091963;28;42694;-78
2022/10/26 16:13:54;;;;;;;3.13;2.10;;;;;;;20.32;61.30;99298.03;5092097;28;40044;-79
2022/10/26 16:16:22;;;;;;;3.40;1.90;;;;;;;20.23;61.02;99300.78;5125270;27;41942;-81
2022/10/26 16:18:53;;;;;;;3.50;2.07;;;;;;;20.12;61.66;99306.31;5074824;28;41874;-81
2022/10/26 16:21:22;;;;;;;2.10;1.70;;;;;;;20.02;61.93;99314.41;5108545;28;44487;-81
2022/10/26 16:23:51;;;;;;;4.03;2.47;;;;;;;19.76;62.05;99291.81;5108820;28;38721;-80
2022/10/26 16:26:20;;;;;;;2.33;2.00;;;;;;;19.78;62.03;99322.91;5074533;28;42417;-80
2022/10/26 16:28:47;;;;;;;4.00;2.10;;;;;;;19.67;62.93;99321.22;5092984;28;42793;-80
2022/10/26 16:31:19;;;;;;;3.80;2.10;;;;;;;19.53;63.44;99329.75;5091754;28;42555;-81
2022/10/26 16:33:47;;;;;;;3.80;2.17;;;;;;;19.43;64.40;99331.50;5091196;28;40711;-80
2022/10/26 16:36:16;;;;;;;5.57;2.63;;;;;;;19.23;64.64;99317.22;5074712;28;41697;-81
2022/10/26 16:38:44;;;;;;;3.97;2.17;;;;;;;19.25;64.89;99339.44;5091487;28;42779;-79
2022/10/26 16:41:13;;;;;;;4.90;2.40;;;;;;;19.07;65.30;99321.44;5091470;28;42007;-80
2022/10/26 16:43:43;;;;;;;3.63;1.90;;;;;;;19.08;65.23;99349.97;5092791;28;39948;-80
2022/10/26 16:46:12;;;;;;;4.33;2.00;;;;;;;19.00;64.75;99354.22;5125871;27;41735;-81
2022/10/26 16:48:43;;;;;;;1.77;1.63;;;;;;;18.94;65.56;99357.41;5091272;28;42771;-81
2022/10/26 16:51:13;;;;;;;3.50;2.40;;;;;;;18.85;65.63;99363.63;5091236;28;41333;-80
2022/10/26 16:53:41;;;;;;;4.43;1.93;;;;;;;18.67;65.90;99349.13;5074522;28;41735;-82
2022/10/26 16:56:11;;;;;;;2.37;1.80;;;;;;;18.68;66.10;99364.25;5074218;28;42430;-81
2022/10/26 16:58:40;;;;;;;2.80;1.80;;;;;;;18.58;66.45;99358.00;5074334;28;44540;-80
2022/10/26 17:01:09;;;;;;;2.47;1.80;;;;;;;18.53;66.70;99363.75;5090964;28;42529;-79
2022/10/26 17:03:36;;;;;;;2.90;1.87;;;;;;;18.42;67.05;99361.13;5092262;28;39942;-81
2022/10/26 17:06:07;;;;;;;3.93;2.10;;;;;;;18.40;67.82;99364.94;5124773;27;41826;-81
2022/10/26 17:08:36;;;;;;;5.47;2.27;;;;;;;18.22;67.67;99362.00;5074631;28;42532;-79
2022/10/26 17:11:07;;;;;;;3.00;2.27;;;;;;;18.24;68.75;99371.63;5107922;28;40889;-81
2022/10/26 17:13:34;;;;;;;3.67;2.47;;;;;;;18.17;68.07;99377.66;5074847;28;39146;-81
2022/10/26 17:16:03;;;;;;;2.77;2.30;;;;;;;18.13;68.46;99382.41;5091214;28;41846;-80
2022/10/26 17:18:31;;;;;;;2.60;2.40;;;;;;;18.02;68.49;99378.94;5074475;28;42185;-81
2022/10/26 17:20:58;;;;;;;3.77;2.43;;;;;;;17.92;68.14;99376.19;5090810;28;42209;-81
2022/10/26 17:23:28;;;;;;;4.03;2.90;;;;;;;17.88;68.73;99372.06;5092196;28;40676;-79
2022/10/26 17:26:01;;;;;;;3.07;2.30;;;;;;;17.91;68.94;99395.94;5092198;28;42796;-80
2022/10/26 17:28:29;;;;;;;4.10;1.87;;;;;;;17.91;69.03;99398.63;5093213;28;42140;-78
2022/10/26 17:31:03;;;;;;;3.40;2.17;;;;;;;17.84;69.10;99406.31;5094711;28;42269;-81
2022/10/26 17:33:32;;;;;;;2.47;2.00;;;;;;;17.79;68.69;99408.53;5078000;28;39984;-80
2022/10/26 17:36:00;;;;;;;2.37;1.80;;;;;;;17.75;68.46;99412.44;5128803;27;41857;-78
2022/10/26 17:38:33;;;;;;;2.53;2.23;;;;;;;17.69;68.56;99414.75;5077706;28;43064;-81
2022/10/26 17:41:02;;;;;;;2.97;1.90;;;;;;;17.51;69.17;99395.69;5077930;28;41193;-79
2022/10/26 17:43:33;;;;;;;5.63;3.17;;;;;;;17.57;69.42;99422.78;5095677;28;40007;-80
2022/10/26 17:46:02;;;;;;;3.10;2.80;;;;;;;17.50;69.66;99426.97;5094472;28;43573;-81
2022/10/26 17:48:31;;;;;;;5.83;2.57;;;;;;;17.45;69.75;99434.50;5095200;28;42830;-80
2022/10/26 17:51:00;;;;;;;3.67;2.20;;;;;;;17.42;69.76;99437.47;5093847;28;43700;-80
2022/10/26 17:53:28;;;;;;;3.13;2.40;;;;;;;17.37;69.73;99449.50;5077218;28;40293;-79
2022/10/26 17:56:05;;;;;;;3.37;2.67;;;;;;;17.33;70.17;99448.03;5128794;27;41617;-82
2022/10/26 17:58:33;;;;;;;3.07;2.47;;;;;;;17.17;70.18;99432.38;5076876;28;42799;-79
2022/10/26 18:01:03;;;;;;;4.07;3.57;;;;;;;17.13;69.99;99437.13;5094103;28;42334;-78
2022/10/26 18:03:32;;;;;;;5.03;2.50;;;;;;;17.17;70.61;99457.34;5077088;28;40545;-82
2022/10/26 18:06:01;;;;;;;3.57;2.10;;;;;;;17.13;70.64;99468.41;5094465;28;41737;-80
2022/10/26 18:08:31;;;;;;;3.00;1.97;;;;;;;17.07;70.46;99458.16;5093775;28;41692;-81
2022/10/26 18:10:59;;;;;;;4.03;2.50;;;;;;;16.92;71.72;99443.34;5128054;27;43238;-80
2022/10/26 18:13:30;;;;;;;3.13;1.97;;;;;;;16.91;71.87;99452.34;5076949;28;38856;-78
2022/10/26 18:16:03;;;;;;;4.00;2.40;;;;;;;16.93;72.19;99466.47;5076671;28;41929;-79
2022/10/26 18:18:31;;;;;;;2.73;2.50;;;;;;;16.76;72.17;99460.59;5093377;28;42953;-79
2022/10/26 18:21:02;;;;;;;3.93;2.40;;;;;;;16.72;72.59;99445.75;5076680;28;41285;-79
2022/10/26 18:23:30;;;;;;;5.20;2.60;;;;;;;16.81;72.86;99468.28;5076709;28;41061;-77
2022/10/26 18:26:02;;;;;;;4.93;2.57;;;;;;;16.77;72.54;99473.00;5094468;28;42776;-79
2022/10/26 18:28:32;;;;;;;2.50;1.90;;;;;;;16.65;73.09;99468.63;5093485;28;44754;-80
2022/10/26 18:31:04;;;;;;;3.47;2.53;;;;;;;16.68;73.31;99481.75;5076718;28;44314;-78
2022/10/26 18:33:32;;;;;;;3.83;2.43;;;;;;;16.54;73.47;99468.56;5076611;28;38712;-80
2022/10/26 18:36:02;;;;;;;4.23;2.13;;;;;;;16.59;74.45;99485.09;5093567;28;42118;-81
2022/10/26 18:38:30;;;;;;;4.67;2.80;;;;;;;16.55;75.08;99488.13;5109876;27;43191;-80
2022/10/26 18:40:59;;;;;;;4.67;2.53;;;;;;;16.49;74.88;99500.13;5093472;28;42526;-80
2022/10/26 18:43:27;;;;;;;4.17;2.73;;;;;;;16.46;75.10;99503.91;5093691;28;38808;-78
2022/10/26 18:46:05;;;;;;;4.27;2.70;;;;;;;16.40;75.14;99500.84;5076417;28;44170;-79
2022/10/26 18:48:33;;;;;;;4.57;3.10;;;;;;;16.39;75.04;99504.50;5091423;28;42894;-82
2022/10/26 18:51:05;;;;;;;3.37;2.87;;;;;;;16.37;75.54;99501.06;5082179;28;42380;-83
2022/10/26 18:53:33;;;;;;;3.67;2.80;;;;;;;16.28;76.94;99496.44;5076290;28;40356;-82
2022/10/26 18:56:02;;;;;;;5.77;2.90;;;;;;;16.29;76.80;99509.69;5092206;28;41982;-81
2022/10/26 18:58:31;;;;;;;4.50;2.47;;;;;;;16.20;76.68;99498.81;5093216;28;42767;-81
2022/10/26 19:01:09;;;;;;;6.00;3.90;;;;;;;16.21;76.63;99505.88;5091788;28;43253;-79
2022/10/26 19:03:38;;;;;;;2.80;2.50;;;;;;;16.04;76.34;99491.97;5089781;28;40650;-81
2022/10/26 19:06:10;;;;;;;3.27;2.80;;;;;;;16.09;76.97;99515.66;5091827;28;41803;-81
2022/10/26 19:08:39;;;;;;;4.50;2.70;;;;;;;16.04;76.38;99516.03;5092903;28;44430;-80
2022/10/26 19:11:09;;;;;;;3.60;2.60;;;;;;;15.98;76.23;99521.81;5093431;28;42391;-80
2022/10/26 19:13:37;;;;;;;2.53;2.23;;;;;;;15.92;76.11;99519.59;5075679;28;39819;-81
2022/10/26 19:16:09;;;;;;;2.60;2.40;;;;;;;15.86;76.53;99517.38;5092087;28;41646;-81
2022/10/26 19:18:37;;;;;;;4.37;3.13;;;;;;;15.78;76.94;99520.63;5075903;28;42574;-80
2022/10/26 19:21:07;;;;;;;4.03;2.87;;;;;;;15.74;77.65;99524.47;5074749;28;42242;-81
2022/10/26 19:23:36;;;;;;;4.60;3.40;;;;;;;15.72;77.63;99528.19;5075616;28;39704;-80
2022/10/26 19:26:05;;;;;;;4.83;2.63;;;;;;;15.70;77.78;99527.50;5091537;28;42125;-81
2022/10/26 19:28:33;;;;;;;4.83;2.80;;;;;;;15.68;77.55;99529.41;5075114;28;41556;-77
2022/10/26 19:31:03;;;;;;;5.90;3.40;;;;;;;15.67;78.14;99531.22;5091802;28;42276;-78
2022/10/26 19:33:32;;;;;;;3.37;2.70;;;;;;;15.67;77.84;99546.41;5092315;28;39744;-80
2022/10/26 19:36:02;;;;;;;5.03;2.70;;;;;;;15.66;78.41;99542.00;5091593;28;41739;-81
2022/10/26 19:38:29;;;;;;;4.30;2.83;;;;;;;15.65;78.67;99545.66;5093355;28;42848;-78
2022/10/26 19:40:59;;;;;;;4.90;3.00;;;;;;;15.61;78.84;99549.50;5074282;28;41220;-80
2022/10/26 19:43:28;;;;;;;6.40;3.90;;;;;;;15.57;80.17;99542.69;5092352;28;39244;-80
2022/10/26 19:45:56;;;;;;;8.43;5.30;;;;;;;15.52;80.70;99547.47;5074447;28;40960;-78
2022/10/26 19:48:23;;;;;;;6.70;4.77;;;;;;;15.38;81.79;99532.44;5091921;28;43116;-78
2022/10/26 19:50:54;;;;;;;7.13;4.47;;;;;;;15.51;83.60;99553.75;5089863;28;43626;-78
2022/10/26 19:53:22;;;;;;;7.63;4.83;;;;;;;15.44;83.79;99553.34;5089226;28;40976;-79
2022/10/26 19:55:56;;;;;;;7.00;4.50;;;;;;;15.33;83.38;99548.75;5091695;28;42099;-82
2022/10/26 19:58:24;;;;;;;4.67;3.83;;;;;;;15.42;82.23;99569.47;5074812;28;41905;-80
2022/10/26 20:00:55;;;;;;;6.30;3.63;;;;;;;15.38;82.11;99577.81;5073910;28;42632;-79
2022/10/26 20:03:23;;;;;;;4.87;3.83;;;;;;;15.30;81.43;99578.34;5091522;28;38746;-81
2022/10/26 20:05:55;;;;;;;4.27;3.40;;;;;;;15.24;80.72;99578.78;5087646;28;41736;-80
2022/10/26 20:08:24;;;;;;;4.90;4.30;;;;;;;15.16;80.64;99586.47;5074532;28;43378;-80